sensor_id;sensor_type;location;lat;lon;timestamp;P1;durP1;ratioP1;P2;durP2;ratioP2
41434;SDS011;27177;22.262;114.192;2022-07-29T00:00:06;11.40;;;10.30;;
41434;SDS011;27177;22.262;114.192;2022-07-29T00:02:35;11.63;;;10.60;;
41434;SDS011;27177;22.262;114.192;2022-07-29T00:05:04;11.35;;;10.23;;
41434;SDS011;27177;22.262;114.192;2022-07-29T00:07:32;11.52;;;10.43;;
41434;SDS011;27177;22.262;114.192;2022-07-29T00:09:59;11.43;;;10.32;;
41434;SDS011;27177;22.262;114.192;2022-07-29T00:12:26;11.82;;;10.73;;
41434;SDS011;27177;22.262;114.192;2022-07-29T00:14:53;11.00;;;9.98;;
41434;SDS011;27177;22.262;114.192;2022-07-29T00:17:20;10.90;;;9.90;;
41434;SDS011;27177;22.262;114.192;2022-07-29T00:19:48;11.45;;;10.30;;
41434;SDS011;27177;22.262;114.192;2022-07-29T00:22:15;11.05;;;9.95;;
41434;SDS011;27177;22.262;114.192;2022-07-29T00:24:42;10.80;;;9.70;;
41434;SDS011;27177;22.262;114.192;2022-07-29T00:27:09;10.63;;;9.63;;
41434;SDS011;27177;22.262;114.192;2022-07-29T00:29:36;10.77;;;9.00;;
41434;SDS011;27177;22.262;114.192;2022-07-29T00:32:04;10.48;;;9.45;;
41434;SDS011;27177;22.262;114.192;2022-07-29T00:34:31;12.50;;;10.30;;
41434;SDS011;27177;22.262;114.192;2022-07-29T00:37:16;11.10;;;10.10;;
41434;SDS011;27177;22.262;114.192;2022-07-29T00:42:18;10.90;;;9.88;;
41434;SDS011;27177;22.262;114.192;2022-07-29T00:44:45;10.30;;;9.27;;
41434;SDS011;27177;22.262;114.192;2022-07-29T00:47:12;10.90;;;9.90;;
41434;SDS011;27177;22.262;114.192;2022-07-29T00:49:40;11.20;;;10.18;;
41434;SDS011;27177;22.262;114.192;2022-07-29T00:52:08;10.40;;;9.40;;
41434;SDS011;27177;22.262;114.192;2022-07-29T00:57:12;11.35;;;10.18;;
41434;SDS011;27177;22.262;114.192;2022-07-29T00:59:39;11.40;;;10.35;;
41434;SDS011;27177;22.262;114.192;2022-07-29T01:07:17;12.00;;;10.80;;
41434;SDS011;27177;22.262;114.192;2022-07-29T01:12:17;14.57;;;10.82;;
41434;SDS011;27177;22.262;114.192;2022-07-29T01:14:48;11.45;;;10.27;;
41434;SDS011;27177;22.262;114.192;2022-07-29T01:17:26;10.70;;;9.63;;
41434;SDS011;27177;22.262;114.192;2022-07-29T01:20:03;11.27;;;10.32;;
41434;SDS011;27177;22.262;114.192;2022-07-29T01:22:53;9.95;;;9.05;;
41434;SDS011;27177;22.262;114.192;2022-07-29T01:30:57;10.52;;;9.50;;
41434;SDS011;27177;22.262;114.192;2022-07-29T01:33:26;9.35;;;8.50;;
41434;SDS011;27177;22.262;114.192;2022-07-29T01:36:14;9.40;;;8.52;;
41434;SDS011;27177;22.262;114.192;2022-07-29T01:39:04;8.70;;;7.85;;
41434;SDS011;27177;22.262;114.192;2022-07-29T01:47:25;9.77;;;8.70;;
41434;SDS011;27177;22.262;114.192;2022-07-29T01:50:15;10.43;;;9.32;;
41434;SDS011;27177;22.262;114.192;2022-07-29T01:52:54;9.25;;;8.43;;
41434;SDS011;27177;22.262;114.192;2022-07-29T01:55:25;10.00;;;8.93;;
41434;SDS011;27177;22.262;114.192;2022-07-29T01:57:56;9.18;;;8.15;;
41434;SDS011;27177;22.262;114.192;2022-07-29T02:00:24;10.05;;;9.15;;
41434;SDS011;27177;22.262;114.192;2022-07-29T02:02:52;9.73;;;8.73;;
41434;SDS011;27177;22.262;114.192;2022-07-29T02:05:20;11.05;;;9.38;;
41434;SDS011;27177;22.262;114.192;2022-07-29T02:07:48;10.27;;;9.27;;
41434;SDS011;27177;22.262;114.192;2022-07-29T02:10:18;10.57;;;9.68;;
41434;SDS011;27177;22.262;114.192;2022-07-29T02:15:19;12.20;;;10.23;;
41434;SDS011;27177;22.262;114.192;2022-07-29T02:17:51;10.53;;;9.43;;
41434;SDS011;27177;22.262;114.192;2022-07-29T02:22:49;10.48;;;9.38;;
41434;SDS011;27177;22.262;114.192;2022-07-29T02:27:55;9.95;;;9.00;;
41434;SDS011;27177;22.262;114.192;2022-07-29T02:30:23;10.13;;;9.13;;
41434;SDS011;27177;22.262;114.192;2022-07-29T02:35:26;9.68;;;8.77;;
41434;SDS011;27177;22.262;114.192;2022-07-29T02:46:31;10.75;;;8.63;;
41434;SDS011;27177;22.262;114.192;2022-07-29T02:51:40;10.60;;;9.50;;
41434;SDS011;27177;22.262;114.192;2022-07-29T02:56:53;10.63;;;9.63;;
41434;SDS011;27177;22.262;114.192;2022-07-29T02:59:24;10.73;;;9.73;;
41434;SDS011;27177;22.262;114.192;2022-07-29T03:01:54;13.23;;;10.68;;
41434;SDS011;27177;22.262;114.192;2022-07-29T03:06:58;10.80;;;9.70;;
41434;SDS011;27177;22.262;114.192;2022-07-29T03:09:27;10.93;;;9.88;;
41434;SDS011;27177;22.262;114.192;2022-07-29T03:14:30;15.90;;;10.30;;
41434;SDS011;27177;22.262;114.192;2022-07-29T03:16:58;11.45;;;10.35;;
41434;SDS011;27177;22.262;114.192;2022-07-29T03:19:26;11.88;;;10.68;;
41434;SDS011;27177;22.262;114.192;2022-07-29T03:21:55;11.05;;;10.05;;
41434;SDS011;27177;22.262;114.192;2022-07-29T03:27:03;11.43;;;10.07;;
41434;SDS011;27177;22.262;114.192;2022-07-29T03:32:13;11.52;;;10.43;;
41434;SDS011;27177;22.262;114.192;2022-07-29T03:37:12;11.90;;;10.05;;
41434;SDS011;27177;22.262;114.192;2022-07-29T03:42:11;12.05;;;10.85;;
41434;SDS011;27177;22.262;114.192;2022-07-29T03:44:41;10.27;;;9.18;;
41434;SDS011;27177;22.262;114.192;2022-07-29T03:47:11;10.93;;;9.93;;
41434;SDS011;27177;22.262;114.192;2022-07-29T03:49:42;12.30;;;10.85;;
41434;SDS011;27177;22.262;114.192;2022-07-29T03:52:13;12.15;;;10.65;;
41434;SDS011;27177;22.262;114.192;2022-07-29T03:54:41;11.18;;;10.10;;
41434;SDS011;27177;22.262;114.192;2022-07-29T03:57:10;11.57;;;10.45;;
41434;SDS011;27177;22.262;114.192;2022-07-29T03:59:38;10.85;;;9.80;;
41434;SDS011;27177;22.262;114.192;2022-07-29T04:02:06;11.68;;;10.52;;
41434;SDS011;27177;22.262;114.192;2022-07-29T04:07:03;11.25;;;10.15;;
41434;SDS011;27177;22.262;114.192;2022-07-29T04:09:30;11.07;;;10.07;;
41434;SDS011;27177;22.262;114.192;2022-07-29T04:11:58;11.50;;;10.40;;
41434;SDS011;27177;22.262;114.192;2022-07-29T04:14:25;11.48;;;10.45;;
41434;SDS011;27177;22.262;114.192;2022-07-29T04:16:51;11.88;;;10.32;;
41434;SDS011;27177;22.262;114.192;2022-07-29T04:19:18;11.45;;;10.43;;
41434;SDS011;27177;22.262;114.192;2022-07-29T04:21:45;12.38;;;11.07;;
41434;SDS011;27177;22.262;114.192;2022-07-29T04:24:12;11.82;;;10.70;;
41434;SDS011;27177;22.262;114.192;2022-07-29T04:26:39;11.82;;;10.70;;
41434;SDS011;27177;22.262;114.192;2022-07-29T04:29:08;11.00;;;10.00;;
41434;SDS011;27177;22.262;114.192;2022-07-29T04:31:41;13.15;;;10.85;;
41434;SDS011;27177;22.262;114.192;2022-07-29T04:34:09;11.82;;;10.63;;
41434;SDS011;27177;22.262;114.192;2022-07-29T04:36:36;12.57;;;11.48;;
41434;SDS011;27177;22.262;114.192;2022-07-29T04:39:03;11.82;;;10.70;;
41434;SDS011;27177;22.262;114.192;2022-07-29T04:41:31;13.13;;;11.80;;
41434;SDS011;27177;22.262;114.192;2022-07-29T04:43:58;12.38;;;11.27;;
41434;SDS011;27177;22.262;114.192;2022-07-29T04:46:45;11.50;;;10.50;;
41434;SDS011;27177;22.262;114.192;2022-07-29T04:49:12;11.65;;;10.65;;
41434;SDS011;27177;22.262;114.192;2022-07-29T04:51:39;12.65;;;11.48;;
41434;SDS011;27177;22.262;114.192;2022-07-29T04:54:06;12.60;;;11.50;;
41434;SDS011;27177;22.262;114.192;2022-07-29T04:56:33;13.07;;;11.90;;
41434;SDS011;27177;22.262;114.192;2022-07-29T04:59:00;12.82;;;11.57;;
41434;SDS011;27177;22.262;114.192;2022-07-29T05:01:27;13.82;;;12.43;;
41434;SDS011;27177;22.262;114.192;2022-07-29T05:03:54;12.32;;;11.23;;
41434;SDS011;27177;22.262;114.192;2022-07-29T05:06:21;14.73;;;11.57;;
41434;SDS011;27177;22.262;114.192;2022-07-29T05:08:48;12.30;;;11.15;;
41434;SDS011;27177;22.262;114.192;2022-07-29T05:11:18;12.70;;;11.60;;
41434;SDS011;27177;22.262;114.192;2022-07-29T05:13:45;12.32;;;11.13;;
41434;SDS011;27177;22.262;114.192;2022-07-29T05:16:12;12.60;;;11.43;;
41434;SDS011;27177;22.262;114.192;2022-07-29T05:18:39;12.23;;;10.98;;
41434;SDS011;27177;22.262;114.192;2022-07-29T05:21:07;12.63;;;11.43;;
41434;SDS011;27177;22.262;114.192;2022-07-29T05:23:37;12.50;;;11.30;;
41434;SDS011;27177;22.262;114.192;2022-07-29T05:26:04;13.02;;;11.77;;
41434;SDS011;27177;22.262;114.192;2022-07-29T05:28:34;14.00;;;12.80;;
41434;SDS011;27177;22.262;114.192;2022-07-29T05:31:01;13.27;;;12.07;;
41434;SDS011;27177;22.262;114.192;2022-07-29T05:33:28;13.57;;;12.18;;
41434;SDS011;27177;22.262;114.192;2022-07-29T05:35:55;13.43;;;12.23;;
41434;SDS011;27177;22.262;114.192;2022-07-29T05:38:22;13.15;;;11.90;;
41434;SDS011;27177;22.262;114.192;2022-07-29T05:40:50;13.65;;;12.25;;
41434;SDS011;27177;22.262;114.192;2022-07-29T05:43:17;13.52;;;12.30;;
41434;SDS011;27177;22.262;114.192;2022-07-29T05:45:45;13.43;;;12.13;;
41434;SDS011;27177;22.262;114.192;2022-07-29T05:48:12;13.15;;;11.95;;
41434;SDS011;27177;22.262;114.192;2022-07-29T05:50:39;13.02;;;11.75;;
41434;SDS011;27177;22.262;114.192;2022-07-29T05:53:08;13.38;;;12.05;;
41434;SDS011;27177;22.262;114.192;2022-07-29T05:55:35;13.20;;;12.10;;
41434;SDS011;27177;22.262;114.192;2022-07-29T05:58:02;13.13;;;11.77;;
41434;SDS011;27177;22.262;114.192;2022-07-29T06:00:29;12.68;;;11.48;;
41434;SDS011;27177;22.262;114.192;2022-07-29T06:02:57;13.65;;;12.40;;
41434;SDS011;27177;22.262;114.192;2022-07-29T06:05:23;13.25;;;11.80;;
41434;SDS011;27177;22.262;114.192;2022-07-29T06:07:50;13.07;;;11.98;;
41434;SDS011;27177;22.262;114.192;2022-07-29T06:10:18;12.70;;;11.60;;
41434;SDS011;27177;22.262;114.192;2022-07-29T06:12:45;12.88;;;11.77;;
41434;SDS011;27177;22.262;114.192;2022-07-29T06:15:12;14.00;;;12.68;;
41434;SDS011;27177;22.262;114.192;2022-07-29T06:17:39;13.18;;;11.88;;
41434;SDS011;27177;22.262;114.192;2022-07-29T06:20:06;14.02;;;12.73;;
41434;SDS011;27177;22.262;114.192;2022-07-29T06:22:33;13.38;;;12.18;;
41434;SDS011;27177;22.262;114.192;2022-07-29T06:25:01;14.00;;;12.80;;
41434;SDS011;27177;22.262;114.192;2022-07-29T06:27:29;14.88;;;13.02;;
41434;SDS011;27177;22.262;114.192;2022-07-29T06:29:56;14.57;;;13.18;;
41434;SDS011;27177;22.262;114.192;2022-07-29T06:32:23;14.25;;;12.95;;
41434;SDS011;27177;22.262;114.192;2022-07-29T06:34:50;13.93;;;12.75;;
41434;SDS011;27177;22.262;114.192;2022-07-29T06:37:17;14.00;;;12.80;;
41434;SDS011;27177;22.262;114.192;2022-07-29T06:39:44;15.00;;;13.60;;
41434;SDS011;27177;22.262;114.192;2022-07-29T06:42:11;15.35;;;13.95;;
41434;SDS011;27177;22.262;114.192;2022-07-29T06:44:38;14.63;;;13.32;;
41434;SDS011;27177;22.262;114.192;2022-07-29T06:47:07;16.33;;;14.85;;
41434;SDS011;27177;22.262;114.192;2022-07-29T06:49:34;16.13;;;14.63;;
41434;SDS011;27177;22.262;114.192;2022-07-29T06:52:01;15.88;;;14.40;;
41434;SDS011;27177;22.262;114.192;2022-07-29T06:54:28;16.40;;;15.00;;
41434;SDS011;27177;22.262;114.192;2022-07-29T06:56:55;17.10;;;15.60;;
41434;SDS011;27177;22.262;114.192;2022-07-29T06:59:22;16.90;;;15.40;;
41434;SDS011;27177;22.262;114.192;2022-07-29T07:01:49;16.38;;;14.82;;
41434;SDS011;27177;22.262;114.192;2022-07-29T07:04:16;16.05;;;14.65;;
41434;SDS011;27177;22.262;114.192;2022-07-29T07:06:43;16.40;;;14.90;;
41434;SDS011;27177;22.262;114.192;2022-07-29T07:09:10;16.55;;;14.77;;
41434;SDS011;27177;22.262;114.192;2022-07-29T07:11:37;17.27;;;15.68;;
41434;SDS011;27177;22.262;114.192;2022-07-29T07:14:04;19.25;;;16.55;;
41434;SDS011;27177;22.262;114.192;2022-07-29T07:16:31;17.90;;;16.27;;
41434;SDS011;27177;22.262;114.192;2022-07-29T07:18:58;18.00;;;16.20;;
41434;SDS011;27177;22.262;114.192;2022-07-29T07:21:27;17.33;;;15.77;;
41434;SDS011;27177;22.262;114.192;2022-07-29T07:23:55;18.08;;;16.35;;
41434;SDS011;27177;22.262;114.192;2022-07-29T07:26:22;18.83;;;16.92;;
41434;SDS011;27177;22.262;114.192;2022-07-29T07:28:49;17.45;;;15.82;;
41434;SDS011;27177;22.262;114.192;2022-07-29T07:31:16;18.55;;;16.70;;
41434;SDS011;27177;22.262;114.192;2022-07-29T07:33:43;19.45;;;17.75;;
41434;SDS011;27177;22.262;114.192;2022-07-29T07:36:10;19.02;;;17.15;;
41434;SDS011;27177;22.262;114.192;2022-07-29T07:38:37;17.83;;;16.15;;
41434;SDS011;27177;22.262;114.192;2022-07-29T07:41:04;18.02;;;16.33;;
41434;SDS011;27177;22.262;114.192;2022-07-29T07:43:32;18.63;;;16.95;;
41434;SDS011;27177;22.262;114.192;2022-07-29T07:45:59;18.52;;;16.73;;
41434;SDS011;27177;22.262;114.192;2022-07-29T07:48:26;17.70;;;16.08;;
41434;SDS011;27177;22.262;114.192;2022-07-29T07:50:53;17.83;;;16.20;;
41434;SDS011;27177;22.262;114.192;2022-07-29T07:53:20;19.20;;;17.00;;
41434;SDS011;27177;22.262;114.192;2022-07-29T07:55:47;18.35;;;16.75;;
41434;SDS011;27177;22.262;114.192;2022-07-29T07:58:14;20.10;;;18.17;;
41434;SDS011;27177;22.262;114.192;2022-07-29T08:00:41;20.80;;;18.80;;
41434;SDS011;27177;22.262;114.192;2022-07-29T08:03:08;20.33;;;18.17;;
41434;SDS011;27177;22.262;114.192;2022-07-29T08:05:38;20.88;;;18.88;;
41434;SDS011;27177;22.262;114.192;2022-07-29T08:08:06;20.13;;;18.23;;
41434;SDS011;27177;22.262;114.192;2022-07-29T08:10:33;20.35;;;18.40;;
41434;SDS011;27177;22.262;114.192;2022-07-29T08:13:21;21.20;;;19.00;;
41434;SDS011;27177;22.262;114.192;2022-07-29T08:15:50;21.85;;;19.83;;
41434;SDS011;27177;22.262;114.192;2022-07-29T08:18:27;21.83;;;19.67;;
41434;SDS011;27177;22.262;114.192;2022-07-29T08:20:55;21.65;;;19.38;;
41434;SDS011;27177;22.262;114.192;2022-07-29T08:23:23;21.35;;;19.33;;
41434;SDS011;27177;22.262;114.192;2022-07-29T08:25:52;21.85;;;19.88;;
41434;SDS011;27177;22.262;114.192;2022-07-29T08:28:19;22.05;;;20.00;;
41434;SDS011;27177;22.262;114.192;2022-07-29T08:30:46;21.23;;;19.33;;
41434;SDS011;27177;22.262;114.192;2022-07-29T08:33:12;22.65;;;20.23;;
41434;SDS011;27177;22.262;114.192;2022-07-29T08:35:39;22.02;;;19.92;;
41434;SDS011;27177;22.262;114.192;2022-07-29T08:38:06;21.17;;;19.17;;
41434;SDS011;27177;22.262;114.192;2022-07-29T08:40:33;21.85;;;19.80;;
41434;SDS011;27177;22.262;114.192;2022-07-29T08:43:07;22.00;;;19.75;;
41434;SDS011;27177;22.262;114.192;2022-07-29T08:45:42;22.63;;;20.25;;
41434;SDS011;27177;22.262;114.192;2022-07-29T08:48:22;22.55;;;20.55;;
41434;SDS011;27177;22.262;114.192;2022-07-29T08:50:54;22.92;;;20.60;;
41434;SDS011;27177;22.262;114.192;2022-07-29T08:53:23;21.95;;;19.77;;
41434;SDS011;27177;22.262;114.192;2022-07-29T08:55:52;21.77;;;19.67;;
41434;SDS011;27177;22.262;114.192;2022-07-29T08:58:20;23.17;;;20.80;;
41434;SDS011;27177;22.262;114.192;2022-07-29T09:00:50;23.30;;;21.00;;
41434;SDS011;27177;22.262;114.192;2022-07-29T09:03:23;23.25;;;20.88;;
41434;SDS011;27177;22.262;114.192;2022-07-29T09:05:51;22.40;;;20.08;;
41434;SDS011;27177;22.262;114.192;2022-07-29T09:08:20;22.35;;;20.08;;
41434;SDS011;27177;22.262;114.192;2022-07-29T09:10:48;23.58;;;21.42;;
41434;SDS011;27177;22.262;114.192;2022-07-29T09:13:17;22.98;;;20.67;;
41434;SDS011;27177;22.262;114.192;2022-07-29T09:15:44;22.20;;;20.23;;
41434;SDS011;27177;22.262;114.192;2022-07-29T09:18:11;22.23;;;20.13;;
41434;SDS011;27177;22.262;114.192;2022-07-29T09:20:38;22.80;;;20.50;;
41434;SDS011;27177;22.262;114.192;2022-07-29T09:23:31;22.67;;;20.05;;
41434;SDS011;27177;22.262;114.192;2022-07-29T09:31:09;21.15;;;19.15;;
41434;SDS011;27177;22.262;114.192;2022-07-29T09:36:11;21.10;;;19.30;;
41434;SDS011;27177;22.262;114.192;2022-07-29T09:38:38;21.50;;;19.33;;
41434;SDS011;27177;22.262;114.192;2022-07-29T09:41:05;22.00;;;19.98;;
41434;SDS011;27177;22.262;114.192;2022-07-29T09:43:34;20.65;;;18.77;;
41434;SDS011;27177;22.262;114.192;2022-07-29T09:46:12;21.83;;;19.67;;
41434;SDS011;27177;22.262;114.192;2022-07-29T09:48:40;21.05;;;18.95;;
41434;SDS011;27177;22.262;114.192;2022-07-29T09:51:16;21.85;;;19.85;;
41434;SDS011;27177;22.262;114.192;2022-07-29T09:53:45;21.42;;;19.40;;
41434;SDS011;27177;22.262;114.192;2022-07-29T09:56:12;24.08;;;20.50;;
41434;SDS011;27177;22.262;114.192;2022-07-29T09:58:39;21.13;;;19.05;;
41434;SDS011;27177;22.262;114.192;2022-07-29T10:01:06;22.00;;;19.92;;
41434;SDS011;27177;22.262;114.192;2022-07-29T10:03:50;21.20;;;19.35;;
41434;SDS011;27177;22.262;114.192;2022-07-29T10:06:17;21.58;;;19.48;;
41434;SDS011;27177;22.262;114.192;2022-07-29T10:08:44;22.33;;;20.23;;
41434;SDS011;27177;22.262;114.192;2022-07-29T10:11:13;21.25;;;19.35;;
41434;SDS011;27177;22.262;114.192;2022-07-29T10:13:42;21.58;;;19.70;;
41434;SDS011;27177;22.262;114.192;2022-07-29T10:16:10;22.17;;;19.98;;
41434;SDS011;27177;22.262;114.192;2022-07-29T10:18:38;23.58;;;20.42;;
41434;SDS011;27177;22.262;114.192;2022-07-29T10:21:07;22.13;;;19.60;;
41434;SDS011;27177;22.262;114.192;2022-07-29T10:26:03;21.73;;;19.63;;
41434;SDS011;27177;22.262;114.192;2022-07-29T10:28:31;21.08;;;18.98;;
41434;SDS011;27177;22.262;114.192;2022-07-29T10:31:00;20.98;;;19.05;;
41434;SDS011;27177;22.262;114.192;2022-07-29T10:44:48;21.42;;;19.52;;
41434;SDS011;27177;22.262;114.192;2022-07-29T10:47:24;21.98;;;19.88;;
41434;SDS011;27177;22.262;114.192;2022-07-29T10:49:59;22.02;;;20.00;;
41434;SDS011;27177;22.262;114.192;2022-07-29T10:52:51;22.77;;;19.70;;
41434;SDS011;27177;22.262;114.192;2022-07-29T10:55:35;22.60;;;20.40;;
41434;SDS011;27177;22.262;114.192;2022-07-29T10:58:19;21.42;;;19.33;;
41434;SDS011;27177;22.262;114.192;2022-07-29T11:00:52;22.05;;;19.95;;
41434;SDS011;27177;22.262;114.192;2022-07-29T11:06:12;23.98;;;20.23;;
41434;SDS011;27177;22.262;114.192;2022-07-29T11:08:40;21.75;;;19.83;;
41434;SDS011;27177;22.262;114.192;2022-07-29T11:13:47;22.98;;;20.83;;
41434;SDS011;27177;22.262;114.192;2022-07-29T11:16:20;23.98;;;21.63;;
41434;SDS011;27177;22.262;114.192;2022-07-29T11:21:37;22.42;;;20.42;;
41434;SDS011;27177;22.262;114.192;2022-07-29T11:27:18;23.50;;;21.17;;
41434;SDS011;27177;22.262;114.192;2022-07-29T11:29:50;23.05;;;20.95;;
41434;SDS011;27177;22.262;114.192;2022-07-29T11:32:22;23.92;;;21.73;;
41434;SDS011;27177;22.262;114.192;2022-07-29T11:37:26;22.00;;;19.92;;
41434;SDS011;27177;22.262;114.192;2022-07-29T11:45:04;23.38;;;21.00;;
41434;SDS011;27177;22.262;114.192;2022-07-29T11:52:41;23.67;;;21.35;;
41434;SDS011;27177;22.262;114.192;2022-07-29T11:57:46;22.95;;;20.85;;
41434;SDS011;27177;22.262;114.192;2022-07-29T12:00:20;22.25;;;20.25;;
41434;SDS011;27177;22.262;114.192;2022-07-29T12:03:01;22.02;;;20.05;;
41434;SDS011;27177;22.262;114.192;2022-07-29T12:05:34;21.75;;;19.88;;
41434;SDS011;27177;22.262;114.192;2022-07-29T12:08:06;24.05;;;21.85;;
41434;SDS011;27177;22.262;114.192;2022-07-29T12:15:53;23.67;;;21.48;;
41434;SDS011;27177;22.262;114.192;2022-07-29T12:18:25;23.85;;;21.55;;
41434;SDS011;27177;22.262;114.192;2022-07-29T12:20:56;23.63;;;21.48;;
41434;SDS011;27177;22.262;114.192;2022-07-29T12:31:14;21.77;;;19.83;;
41434;SDS011;27177;22.262;114.192;2022-07-29T12:36:17;23.23;;;20.73;;
41434;SDS011;27177;22.262;114.192;2022-07-29T12:43:55;24.65;;;22.35;;
41434;SDS011;27177;22.262;114.192;2022-07-29T12:46:22;24.30;;;22.05;;
41434;SDS011;27177;22.262;114.192;2022-07-29T12:48:50;24.77;;;22.45;;
41434;SDS011;27177;22.262;114.192;2022-07-29T12:51:28;25.77;;;23.30;;
41434;SDS011;27177;22.262;114.192;2022-07-29T12:54:06;24.73;;;22.15;;
41434;SDS011;27177;22.262;114.192;2022-07-29T12:56:33;25.17;;;22.80;;
41434;SDS011;27177;22.262;114.192;2022-07-29T12:59:10;25.73;;;23.33;;
41434;SDS011;27177;22.262;114.192;2022-07-29T13:01:38;23.65;;;21.42;;
41434;SDS011;27177;22.262;114.192;2022-07-29T13:04:05;24.20;;;21.77;;
41434;SDS011;27177;22.262;114.192;2022-07-29T13:09:14;25.15;;;22.65;;
41434;SDS011;27177;22.262;114.192;2022-07-29T13:11:52;23.35;;;21.25;;
41434;SDS011;27177;22.262;114.192;2022-07-29T13:14:31;23.67;;;21.33;;
41434;SDS011;27177;22.262;114.192;2022-07-29T13:17:07;23.77;;;21.65;;
41434;SDS011;27177;22.262;114.192;2022-07-29T13:22:11;24.42;;;22.02;;
41434;SDS011;27177;22.262;114.192;2022-07-29T13:24:49;24.45;;;22.08;;
41434;SDS011;27177;22.262;114.192;2022-07-29T15:14:09;22.65;;;20.65;;
41434;SDS011;27177;22.262;114.192;2022-07-29T15:50:16;19.65;;;17.88;;
41434;SDS011;27177;22.262;114.192;2022-07-29T15:52:44;21.75;;;19.75;;
41434;SDS011;27177;22.262;114.192;2022-07-29T15:55:11;22.70;;;19.58;;
41434;SDS011;27177;22.262;114.192;2022-07-29T15:57:39;21.17;;;19.23;;
41434;SDS011;27177;22.262;114.192;2022-07-29T16:13:00;21.10;;;19.15;;
41434;SDS011;27177;22.262;114.192;2022-07-29T16:29:19;23.13;;;20.88;;
41434;SDS011;27177;22.262;114.192;2022-07-29T16:31:46;22.48;;;20.30;;
41434;SDS011;27177;22.262;114.192;2022-07-29T16:34:13;23.20;;;20.90;;
41434;SDS011;27177;22.262;114.192;2022-07-29T16:36:40;22.48;;;20.23;;
41434;SDS011;27177;22.262;114.192;2022-07-29T16:39:07;22.95;;;20.85;;
41434;SDS011;27177;22.262;114.192;2022-07-29T16:51:59;22.92;;;20.63;;
41434;SDS011;27177;22.262;114.192;2022-07-29T16:57:23;22.08;;;19.83;;
41434;SDS011;27177;22.262;114.192;2022-07-29T17:07:33;22.77;;;20.67;;
41434;SDS011;27177;22.262;114.192;2022-07-29T17:10:01;22.60;;;20.30;;
41434;SDS011;27177;22.262;114.192;2022-07-29T17:12:33;23.15;;;20.92;;
41434;SDS011;27177;22.262;114.192;2022-07-29T17:20:15;21.65;;;19.55;;
41434;SDS011;27177;22.262;114.192;2022-07-29T17:33:03;21.45;;;19.50;;
41434;SDS011;27177;22.262;114.192;2022-07-29T17:38:05;22.05;;;20.02;;
41434;SDS011;27177;22.262;114.192;2022-07-29T17:40:33;20.95;;;18.80;;
41434;SDS011;27177;22.262;114.192;2022-07-29T17:43:00;21.42;;;19.38;;
41434;SDS011;27177;22.262;114.192;2022-07-29T17:53:15;21.85;;;19.70;;
41434;SDS011;27177;22.262;114.192;2022-07-29T17:55:43;22.05;;;20.15;;
41434;SDS011;27177;22.262;114.192;2022-07-29T17:58:18;22.23;;;20.02;;
41434;SDS011;27177;22.262;114.192;2022-07-29T18:00:45;22.27;;;20.25;;
41434;SDS011;27177;22.262;114.192;2022-07-29T18:03:13;21.23;;;19.15;;
41434;SDS011;27177;22.262;114.192;2022-07-29T18:05:40;20.95;;;19.02;;
41434;SDS011;27177;22.262;114.192;2022-07-29T18:08:07;22.45;;;18.00;;
41434;SDS011;27177;22.262;114.192;2022-07-29T18:10:35;21.05;;;19.05;;
41434;SDS011;27177;22.262;114.192;2022-07-29T18:13:02;20.92;;;18.92;;
41434;SDS011;27177;22.262;114.192;2022-07-29T18:15:29;20.63;;;18.63;;
41434;SDS011;27177;22.262;114.192;2022-07-29T18:17:56;22.20;;;20.00;;
41434;SDS011;27177;22.262;114.192;2022-07-29T18:20:24;20.95;;;18.92;;
41434;SDS011;27177;22.262;114.192;2022-07-29T18:22:51;22.08;;;19.98;;
41434;SDS011;27177;22.262;114.192;2022-07-29T18:25:18;22.35;;;20.15;;
41434;SDS011;27177;22.262;114.192;2022-07-29T18:27:46;23.02;;;20.92;;
41434;SDS011;27177;22.262;114.192;2022-07-29T18:30:14;22.05;;;19.90;;
41434;SDS011;27177;22.262;114.192;2022-07-29T18:32:41;22.30;;;20.10;;
41434;SDS011;27177;22.262;114.192;2022-07-29T18:35:08;22.70;;;20.52;;
41434;SDS011;27177;22.262;114.192;2022-07-29T18:37:35;24.35;;;22.02;;
41434;SDS011;27177;22.262;114.192;2022-07-29T18:40:03;21.80;;;19.80;;
41434;SDS011;27177;22.262;114.192;2022-07-29T18:42:30;22.20;;;20.05;;
41434;SDS011;27177;22.262;114.192;2022-07-29T18:44:58;20.98;;;19.02;;
41434;SDS011;27177;22.262;114.192;2022-07-29T18:47:25;22.52;;;20.33;;
41434;SDS011;27177;22.262;114.192;2022-07-29T18:49:52;24.08;;;21.75;;
41434;SDS011;27177;22.262;114.192;2022-07-29T18:52:19;22.50;;;20.33;;
41434;SDS011;27177;22.262;114.192;2022-07-29T18:54:46;21.30;;;19.27;;
41434;SDS011;27177;22.262;114.192;2022-07-29T18:57:13;23.15;;;20.95;;
41434;SDS011;27177;22.262;114.192;2022-07-29T18:59:40;23.90;;;21.60;;
41434;SDS011;27177;22.262;114.192;2022-07-29T19:02:08;23.52;;;21.23;;
41434;SDS011;27177;22.262;114.192;2022-07-29T19:04:35;23.08;;;20.92;;
41434;SDS011;27177;22.262;114.192;2022-07-29T19:07:02;23.45;;;21.17;;
41434;SDS011;27177;22.262;114.192;2022-07-29T19:09:29;22.85;;;20.60;;
41434;SDS011;27177;22.262;114.192;2022-07-29T19:11:56;22.38;;;20.38;;
41434;SDS011;27177;22.262;114.192;2022-07-29T19:14:23;22.42;;;20.40;;
41434;SDS011;27177;22.262;114.192;2022-07-29T19:16:50;21.55;;;19.45;;
41434;SDS011;27177;22.262;114.192;2022-07-29T19:19:17;23.20;;;20.98;;
41434;SDS011;27177;22.262;114.192;2022-07-29T19:21:44;22.48;;;20.33;;
41434;SDS011;27177;22.262;114.192;2022-07-29T19:24:11;22.27;;;20.23;;
41434;SDS011;27177;22.262;114.192;2022-07-29T19:26:38;21.92;;;19.92;;
41434;SDS011;27177;22.262;114.192;2022-07-29T19:29:14;24.58;;;22.13;;
41434;SDS011;27177;22.262;114.192;2022-07-29T19:31:42;22.02;;;19.98;;
41434;SDS011;27177;22.262;114.192;2022-07-29T19:34:09;21.65;;;19.50;;
41434;SDS011;27177;22.262;114.192;2022-07-29T19:36:36;22.60;;;20.30;;
41434;SDS011;27177;22.262;114.192;2022-07-29T19:39:03;23.50;;;21.20;;
41434;SDS011;27177;22.262;114.192;2022-07-29T19:41:31;21.83;;;19.83;;
41434;SDS011;27177;22.262;114.192;2022-07-29T19:44:00;22.70;;;20.50;;
41434;SDS011;27177;22.262;114.192;2022-07-29T19:46:27;21.92;;;19.92;;
41434;SDS011;27177;22.262;114.192;2022-07-29T19:48:54;22.30;;;19.92;;
41434;SDS011;27177;22.262;114.192;2022-07-29T19:51:22;23.30;;;21.17;;
41434;SDS011;27177;22.262;114.192;2022-07-29T19:53:49;21.10;;;19.23;;
41434;SDS011;27177;22.262;114.192;2022-07-29T19:56:16;20.10;;;18.30;;
41434;SDS011;27177;22.262;114.192;2022-07-29T19:58:43;21.42;;;19.50;;
41434;SDS011;27177;22.262;114.192;2022-07-29T20:01:11;21.70;;;19.60;;
41434;SDS011;27177;22.262;114.192;2022-07-29T20:03:38;21.75;;;19.77;;